createdAt,value
2023-03-22T00:02:05.952Z,71.48
2023-03-22T00:04:32.796Z,71.52
2023-03-22T00:06:59.589Z,71.38
2023-03-22T00:09:26.171Z,71.69
2023-03-22T00:11:52.713Z,71.46
2023-03-22T00:14:20.627Z,70.97
2023-03-22T00:16:49.150Z,71.21
2023-03-22T00:19:17.457Z,71.22
2023-03-22T00:21:44.312Z,71.41
2023-03-22T00:24:11.022Z,71.02
2023-03-22T00:26:37.830Z,71.20
2023-03-22T00:29:04.632Z,70.58
2023-03-22T00:31:31.583Z,70.31
2023-03-22T00:33:58.180Z,70.92
2023-03-22T00:36:24.784Z,70.55
2023-03-22T00:38:51.963Z,70.67
2023-03-22T00:41:21.723Z,70.84
2023-03-22T00:43:49.220Z,70.88
2023-03-22T00:46:17.809Z,71.08
2023-03-22T00:48:44.512Z,71.07
2023-03-22T00:51:13.494Z,71.76
2023-03-22T00:53:42.993Z,71.32
2023-03-22T00:56:14.075Z,71.16
2023-03-22T00:58:41.486Z,71.61
2023-03-22T01:01:08.557Z,71.52
2023-03-22T01:03:35.352Z,72.12
2023-03-22T01:06:01.909Z,72.53
2023-03-22T01:08:33.228Z,72.22
2023-03-22T01:11:01.278Z,72.14
2023-03-22T01:13:28.108Z,72.63
2023-03-22T01:15:54.847Z,72.52
2023-03-22T01:18:21.804Z,72.52
2023-03-22T01:20:48.368Z,73.27
2023-03-22T01:23:14.973Z,72.80
2023-03-22T01:25:41.534Z,72.68
2023-03-22T01:28:08.736Z,72.61
2023-03-22T01:30:35.573Z,72.88
2023-03-22T01:33:02.332Z,72.72
2023-03-22T01:35:29.016Z,72.74
2023-03-22T01:37:56.102Z,72.88
2023-03-22T01:40:22.645Z,73.39
2023-03-22T01:42:49.201Z,72.96
2023-03-22T01:45:16.855Z,73.70
2023-03-22T01:47:49.250Z,73.69
2023-03-22T01:50:17.629Z,73.32
2023-03-22T01:52:44.804Z,73.66
2023-03-22T01:55:12.834Z,73.27
2023-03-22T01:57:42.238Z,73.48
2023-03-22T02:00:13.989Z,73.87
2023-03-22T02:02:40.975Z,73.71
2023-03-22T02:05:07.804Z,73.29
2023-03-22T02:07:34.941Z,73.76
2023-03-22T02:10:01.772Z,73.83
2023-03-22T02:12:43.547Z,73.83
2023-03-22T02:15:33.706Z,73.93
2023-03-22T02:18:16.588Z,74.14
2023-03-22T02:21:05.268Z,74.49
2023-03-22T02:24:09.524Z,74.52
2023-03-22T02:26:54.492Z,74.60
2023-03-22T02:29:58.712Z,74.41
2023-03-22T02:33:02.866Z,74.79
2023-03-22T02:35:48.171Z,75.45
2023-03-22T02:38:45.927Z,75.43
2023-03-22T02:41:28.262Z,75.21
2023-03-22T02:44:00.865Z,75.47
2023-03-22T02:46:44.670Z,75.55
2023-03-22T02:49:33.242Z,75.61
2023-03-22T02:52:23.900Z,75.79
2023-03-22T02:54:56.771Z,76.11
2023-03-22T02:57:33.841Z,76.36
2023-03-22T03:00:02.602Z,76.35
2023-03-22T03:02:30.776Z,76.35
2023-03-22T03:04:58.094Z,76.59
2023-03-22T03:07:27.779Z,76.52
2023-03-22T03:09:54.596Z,76.81
2023-03-22T03:12:26.922Z,77.07
2023-03-22T03:14:54.300Z,77.33
2023-03-22T03:18:19.470Z,77.80
2023-03-22T03:21:00.409Z,77.65
2023-03-22T03:23:49.596Z,78.18
2023-03-22T03:26:43.860Z,78.61
2023-03-22T03:29:21.453Z,78.91
2023-03-22T03:32:02.575Z,78.65
2023-03-22T03:34:42.161Z,78.41
2023-03-22T03:37:15.965Z,78.76
2023-03-22T03:39:53.011Z,79.26
2023-03-22T03:42:22.660Z,79.02
2023-03-22T03:44:49.464Z,79.07
2023-03-22T03:47:16.400Z,78.88
2023-03-22T03:49:43.012Z,79.84
2023-03-22T03:52:09.883Z,80.47
2023-03-22T03:54:36.816Z,80.57
2023-03-22T03:57:04.204Z,80.36
2023-03-22T03:59:30.804Z,80.37
2023-03-22T04:01:57.385Z,79.73
2023-03-22T04:04:27.021Z,80.20
2023-03-22T04:06:59.019Z,80.29
2023-03-22T04:09:28.479Z,80.54
2023-03-22T04:11:56.682Z,80.71
2023-03-22T04:14:24.117Z,80.56
2023-03-22T04:16:51.102Z,80.17
2023-03-22T04:19:18.528Z,80.55
2023-03-22T04:21:45.888Z,80.62
2023-03-22T04:24:12.989Z,80.33
2023-03-22T04:26:40.193Z,80.41
2023-03-22T04:29:06.908Z,80.63
2023-03-22T04:31:35.687Z,80.26
2023-03-22T04:34:05.801Z,80.45
2023-03-22T04:36:36.550Z,80.63
2023-03-22T04:39:06.055Z,80.21
2023-03-22T04:41:33.684Z,80.22
2023-03-22T04:44:03.513Z,80.34
2023-03-22T04:46:35.961Z,80.67
2023-03-22T04:49:03.525Z,80.63
2023-03-22T04:51:32.010Z,81.08
2023-03-22T04:53:59.369Z,81.09
2023-03-22T04:56:26.407Z,81.27
2023-03-22T04:58:53.206Z,80.81
2023-03-22T05:01:19.893Z,81.42
2023-03-22T05:03:47.518Z,81.25
2023-03-22T05:06:14.607Z,81.36
2023-03-22T05:08:41.347Z,81.19
2023-03-22T05:11:14.574Z,81.63
2023-03-22T05:13:41.158Z,81.89
2023-03-22T05:16:08.668Z,81.22
2023-03-22T05:18:38.068Z,81.69
2023-03-22T05:21:06.792Z,81.48
2023-03-22T05:23:33.400Z,81.67
2023-03-22T05:26:01.659Z,81.57
2023-03-22T05:28:28.510Z,81.66
2023-03-22T05:30:57.104Z,81.54
2023-03-22T05:33:23.896Z,81.00
2023-03-22T05:35:51.242Z,81.30
2023-03-22T05:38:18.151Z,81.30
2023-03-22T05:40:45.484Z,81.14
2023-03-22T05:43:12.441Z,80.70
2023-03-22T05:45:39.140Z,81.11
2023-03-22T05:48:06.061Z,80.88
2023-03-22T05:50:33.092Z,80.46
2023-03-22T05:52:59.903Z,80.67
2023-03-22T05:55:27.077Z,80.48
2023-03-22T05:57:54.821Z,79.72
2023-03-22T06:00:21.901Z,77.72
2023-03-22T06:02:49.439Z,77.34
2023-03-22T06:05:17.391Z,75.44
2023-03-22T06:07:44.780Z,75.67
2023-03-22T06:10:13.527Z,76.09
2023-03-22T06:12:40.226Z,76.52
2023-03-22T06:15:08.465Z,74.18
2023-03-22T06:17:35.538Z,74.31
2023-03-22T06:20:09.433Z,74.22
2023-03-22T06:22:36.134Z,73.11
2023-03-22T06:25:02.877Z,72.90
2023-03-22T06:27:29.754Z,73.42
2023-03-22T06:29:56.355Z,72.51
2023-03-22T06:32:27.041Z,72.93
2023-03-22T06:34:54.780Z,72.23
2023-03-22T06:37:21.903Z,73.18
2023-03-22T06:39:48.543Z,72.86
2023-03-22T06:42:15.690Z,73.13
2023-03-22T06:44:43.976Z,73.36
2023-03-22T06:47:11.923Z,72.62
2023-03-22T06:49:38.911Z,72.99
2023-03-22T06:52:06.123Z,72.51
2023-03-22T06:54:32.795Z,70.72
2023-03-22T06:56:59.357Z,71.24
2023-03-22T06:59:26.129Z,71.77
2023-03-22T07:01:52.640Z,71.05
2023-03-22T07:04:20.118Z,71.55
2023-03-22T07:06:47.045Z,71.13
2023-03-22T07:09:13.838Z,70.88
2023-03-22T07:11:40.482Z,70.98
2023-03-22T07:14:07.024Z,72.14
2023-03-22T07:16:33.636Z,72.01
2023-03-22T07:19:00.947Z,72.29
2023-03-22T07:21:27.483Z,71.93
2023-03-22T07:23:55.164Z,72.58
2023-03-22T07:26:21.754Z,72.76
2023-03-22T07:28:48.338Z,72.37
2023-03-22T07:31:15.313Z,72.14
2023-03-22T07:33:41.947Z,72.88
2023-03-22T07:36:10.377Z,72.43
2023-03-22T07:38:37.227Z,73.56
2023-03-22T07:41:03.984Z,73.64
2023-03-22T07:43:30.561Z,73.00
2023-03-22T07:45:57.660Z,72.68
2023-03-22T07:48:24.704Z,72.72
2023-03-22T07:50:56.051Z,72.94
2023-03-22T07:53:22.777Z,72.32
2023-03-22T07:55:49.316Z,71.91
2023-03-22T08:01:05.269Z,72.05
2023-03-22T08:03:31.843Z,72.40
2023-03-22T08:06:04.353Z,71.96
2023-03-22T08:08:31.031Z,72.09
2023-03-22T08:10:57.575Z,72.20
2023-03-22T08:13:24.208Z,72.04
2023-03-22T08:15:50.732Z,71.70
2023-03-22T08:18:17.256Z,71.25
2023-03-22T08:20:45.436Z,71.17
2023-03-22T08:23:15.905Z,69.96
2023-03-22T08:25:43.370Z,69.72
2023-03-22T08:28:10.571Z,69.32
2023-03-22T08:30:38.035Z,69.36
2023-03-22T08:33:06.558Z,69.61
2023-03-22T08:35:33.310Z,68.81
2023-03-22T08:38:00.121Z,68.23
2023-03-22T08:40:27.050Z,66.99
2023-03-22T08:42:54.190Z,66.18
2023-03-22T08:45:20.763Z,66.28
2023-03-22T08:47:47.389Z,65.65
2023-03-22T08:50:13.989Z,65.21
2023-03-22T08:52:40.710Z,64.60
2023-03-22T08:55:08.440Z,63.85
2023-03-22T08:57:38.689Z,63.40
2023-03-22T09:00:06.948Z,62.12
2023-03-22T09:02:33.570Z,60.38
2023-03-22T09:05:00.178Z,60.07
2023-03-22T09:07:27.564Z,60.33
2023-03-22T09:09:54.060Z,60.27
2023-03-22T09:12:20.706Z,60.74
2023-03-22T09:14:49.202Z,60.36
2023-03-22T09:17:15.893Z,60.33
2023-03-22T09:19:42.537Z,60.23
2023-03-22T09:22:09.418Z,60.99
2023-03-22T09:24:36.110Z,60.06
2023-03-22T09:27:03.392Z,60.50
2023-03-22T09:29:30.483Z,59.92
2023-03-22T09:31:57.174Z,60.28
2023-03-22T09:34:23.733Z,60.16
2023-03-22T09:36:52.774Z,60.05
2023-03-22T09:39:19.484Z,59.73
2023-03-22T09:41:52.605Z,59.78
2023-03-22T09:44:31.389Z,59.70
2023-03-22T09:47:00.717Z,59.81
2023-03-22T09:49:50.468Z,60.25
2023-03-22T09:52:19.504Z,59.73
2023-03-22T09:54:47.204Z,60.59
2023-03-22T09:57:33.637Z,59.77
2023-03-22T10:00:15.668Z,59.95
2023-03-22T10:02:42.215Z,60.10
2023-03-22T10:05:35.578Z,59.78
2023-03-22T10:08:22.615Z,59.75
2023-03-22T10:10:50.792Z,59.45
2023-03-22T10:13:23.097Z,59.77
2023-03-22T10:16:02.078Z,58.75
2023-03-22T10:19:00.697Z,59.75
2023-03-22T10:21:27.505Z,59.06
2023-03-22T10:23:58.153Z,58.02
2023-03-22T10:26:32.680Z,57.91
2023-03-22T10:29:09.544Z,58.16
2023-03-22T10:31:36.227Z,57.93
2023-03-22T10:34:07.244Z,57.33
2023-03-22T10:36:38.263Z,57.58
2023-03-22T10:39:14.534Z,57.18
2023-03-22T10:41:41.456Z,57.17
2023-03-22T10:44:08.306Z,57.39
2023-03-22T10:46:40.428Z,56.57
2023-03-22T10:49:12.959Z,55.94
2023-03-22T10:51:46.002Z,56.10
2023-03-22T10:54:18.915Z,56.30
2023-03-22T10:56:46.298Z,56.33
2023-03-22T10:59:42.021Z,56.52
2023-03-22T11:02:29.280Z,56.59
2023-03-22T11:05:04.735Z,56.68
2023-03-22T11:07:34.297Z,56.26
2023-03-22T11:10:09.907Z,56.28
2023-03-22T11:12:40.763Z,54.84
2023-03-22T11:15:20.580Z,54.46
2023-03-22T11:17:47.370Z,54.36
2023-03-22T11:20:17.260Z,54.02
2023-03-22T11:22:47.276Z,54.16
2023-03-22T11:25:20.474Z,53.12
2023-03-22T11:28:05.966Z,53.04
2023-03-22T11:30:34.073Z,52.94
2023-03-22T11:33:08.462Z,52.57
2023-03-22T11:35:39.001Z,53.04
2023-03-22T11:38:05.881Z,53.33
2023-03-22T11:40:35.528Z,53.01
2023-03-22T11:43:19.536Z,52.28
2023-03-22T11:45:48.477Z,51.56
2023-03-22T11:48:18.964Z,50.85
2023-03-22T11:50:46.407Z,51.28
2023-03-22T11:53:19.469Z,50.40
2023-03-22T11:55:49.889Z,51.30
2023-03-22T11:58:38.466Z,51.85
2023-03-22T12:01:07.303Z,51.96
2023-03-22T12:03:39.496Z,52.44
2023-03-22T12:06:20.351Z,51.57
2023-03-22T12:08:52.978Z,50.98
2023-03-22T12:11:26.225Z,49.54
2023-03-22T12:14:01.708Z,49.72
2023-03-22T12:16:36.365Z,48.72
2023-03-22T12:19:17.147Z,47.83
2023-03-22T12:21:45.343Z,47.61
2023-03-22T12:24:25.829Z,47.13
2023-03-22T12:26:58.189Z,48.10
2023-03-22T12:29:27.062Z,46.29
2023-03-22T12:32:16.129Z,47.50
2023-03-22T12:34:48.169Z,46.82
2023-03-22T12:37:20.335Z,46.20
2023-03-22T12:39:54.450Z,44.84
2023-03-22T12:42:28.221Z,43.21
2023-03-22T12:45:05.427Z,44.53
2023-03-22T12:47:41.969Z,44.34
2023-03-22T12:50:14.006Z,43.57
2023-03-22T12:52:51.270Z,43.88
2023-03-22T12:55:34.080Z,40.87
2023-03-22T12:58:00.776Z,41.49
2023-03-22T13:00:40.595Z,41.32
2023-03-22T13:03:23.153Z,42.23
2023-03-22T13:06:00.818Z,42.85
2023-03-22T13:09:06.256Z,42.84
2023-03-22T13:11:32.859Z,42.83
2023-03-22T13:13:59.413Z,42.62
2023-03-22T13:16:48.550Z,42.38
2023-03-22T13:19:28.835Z,42.47
2023-03-22T13:22:20.175Z,43.07
2023-03-22T13:25:17.116Z,43.09
2023-03-22T13:28:03.534Z,43.25
2023-03-22T13:30:54.632Z,44.89
2023-03-22T13:33:30.518Z,45.60
2023-03-22T13:36:08.534Z,46.19
2023-03-22T13:38:43.111Z,45.71
2023-03-22T13:41:20.975Z,46.65
2023-03-22T13:43:54.361Z,46.35
2023-03-22T13:46:21.012Z,45.54
2023-03-22T13:48:48.069Z,45.49
2023-03-22T13:51:21.576Z,45.48
2023-03-22T13:54:12.665Z,45.55
2023-03-22T13:56:42.285Z,45.79
2023-03-22T13:59:29.882Z,43.64
2023-03-22T14:02:25.020Z,43.44
2023-03-22T14:05:07.965Z,42.98
2023-03-22T14:07:46.498Z,43.11
2023-03-22T14:10:15.779Z,42.41
2023-03-22T14:12:48.184Z,42.89
2023-03-22T14:15:17.823Z,45.05
2023-03-22T14:17:50.608Z,42.36
2023-03-22T14:20:20.919Z,41.57
